sensor_id;sensor_type;location;lat;lon;timestamp;P1;durP1;ratioP1;P2;durP2;ratioP2
14994;SDS011;7593;49.006;8.372;2022-07-22T00:01:14;9.40;;;7.05;;
14994;SDS011;7593;49.006;8.372;2022-07-22T00:03:41;7.32;;;6.63;;
14994;SDS011;7593;49.006;8.372;2022-07-22T00:06:08;7.85;;;7.20;;
14994;SDS011;7593;49.006;8.372;2022-07-22T00:08:36;7.88;;;7.22;;
14994;SDS011;7593;49.006;8.372;2022-07-22T00:11:03;8.57;;;7.40;;
14994;SDS011;7593;49.006;8.372;2022-07-22T00:13:30;7.55;;;6.82;;
14994;SDS011;7593;49.006;8.372;2022-07-22T00:15:57;7.72;;;6.93;;
14994;SDS011;7593;49.006;8.372;2022-07-22T00:18:24;8.48;;;7.65;;
14994;SDS011;7593;49.006;8.372;2022-07-22T00:20:51;8.18;;;7.38;;
14994;SDS011;7593;49.006;8.372;2022-07-22T00:23:18;7.93;;;7.10;;
14994;SDS011;7593;49.006;8.372;2022-07-22T00:25:46;8.20;;;7.40;;
14994;SDS011;7593;49.006;8.372;2022-07-22T00:28:12;8.52;;;7.57;;
14994;SDS011;7593;49.006;8.372;2022-07-22T00:30:39;8.18;;;7.10;;
14994;SDS011;7593;49.006;8.372;2022-07-22T00:33:06;8.38;;;6.95;;
14994;SDS011;7593;49.006;8.372;2022-07-22T00:35:33;7.88;;;7.03;;
14994;SDS011;7593;49.006;8.372;2022-07-22T00:38:00;7.57;;;6.85;;
14994;SDS011;7593;49.006;8.372;2022-07-22T00:40:27;8.68;;;7.63;;
14994;SDS011;7593;49.006;8.372;2022-07-22T00:42:55;12.13;;;7.97;;
14994;SDS011;7593;49.006;8.372;2022-07-22T00:45:22;8.40;;;7.60;;
14994;SDS011;7593;49.006;8.372;2022-07-22T00:47:49;8.80;;;7.85;;
14994;SDS011;7593;49.006;8.372;2022-07-22T00:50:16;10.00;;;7.53;;
14994;SDS011;7593;49.006;8.372;2022-07-22T00:52:44;8.98;;;8.10;;
14994;SDS011;7593;49.006;8.372;2022-07-22T00:55:12;8.82;;;8.02;;
14994;SDS011;7593;49.006;8.372;2022-07-22T00:57:39;9.70;;;8.23;;
14994;SDS011;7593;49.006;8.372;2022-07-22T01:00:09;9.88;;;8.05;;
14994;SDS011;7593;49.006;8.372;2022-07-22T01:02:37;8.90;;;8.02;;
14994;SDS011;7593;49.006;8.372;2022-07-22T01:05:05;9.55;;;8.55;;
14994;SDS011;7593;49.006;8.372;2022-07-22T01:07:32;9.35;;;7.55;;
14994;SDS011;7593;49.006;8.372;2022-07-22T01:09:59;11.15;;;8.02;;
14994;SDS011;7593;49.006;8.372;2022-07-22T01:12:26;9.48;;;8.50;;
14994;SDS011;7593;49.006;8.372;2022-07-22T01:14:52;9.18;;;8.23;;
14994;SDS011;7593;49.006;8.372;2022-07-22T01:17:34;9.52;;;8.55;;
14994;SDS011;7593;49.006;8.372;2022-07-22T01:20:03;9.88;;;8.70;;
14994;SDS011;7593;49.006;8.372;2022-07-22T01:22:31;10.43;;;8.77;;
14994;SDS011;7593;49.006;8.372;2022-07-22T01:24:58;9.55;;;8.65;;
14994;SDS011;7593;49.006;8.372;2022-07-22T01:27:25;10.18;;;9.15;;
14994;SDS011;7593;49.006;8.372;2022-07-22T01:29:53;10.60;;;8.95;;
14994;SDS011;7593;49.006;8.372;2022-07-22T01:32:19;9.10;;;8.20;;
14994;SDS011;7593;49.006;8.372;2022-07-22T01:34:46;9.82;;;8.82;;
14994;SDS011;7593;49.006;8.372;2022-07-22T01:37:15;11.15;;;8.02;;
14994;SDS011;7593;49.006;8.372;2022-07-22T01:39:41;9.48;;;8.38;;
14994;SDS011;7593;49.006;8.372;2022-07-22T01:42:08;10.90;;;9.32;;
14994;SDS011;7593;49.006;8.372;2022-07-22T01:44:35;10.98;;;8.65;;
14994;SDS011;7593;49.006;8.372;2022-07-22T01:47:02;9.95;;;8.95;;
14994;SDS011;7593;49.006;8.372;2022-07-22T01:49:29;11.02;;;9.10;;
14994;SDS011;7593;49.006;8.372;2022-07-22T01:51:55;9.50;;;8.50;;
14994;SDS011;7593;49.006;8.372;2022-07-22T01:54:23;9.57;;;8.45;;
14994;SDS011;7593;49.006;8.372;2022-07-22T01:56:50;11.18;;;10.02;;
14994;SDS011;7593;49.006;8.372;2022-07-22T01:59:17;9.68;;;8.77;;
14994;SDS011;7593;49.006;8.372;2022-07-22T02:01:44;9.35;;;8.50;;
14994;SDS011;7593;49.006;8.372;2022-07-22T02:04:10;9.80;;;8.90;;
14994;SDS011;7593;49.006;8.372;2022-07-22T02:06:37;9.77;;;8.82;;
14994;SDS011;7593;49.006;8.372;2022-07-22T02:09:04;9.63;;;8.73;;
14994;SDS011;7593;49.006;8.372;2022-07-22T02:11:34;10.40;;;9.35;;
14994;SDS011;7593;49.006;8.372;2022-07-22T02:14:01;10.40;;;9.30;;
14994;SDS011;7593;49.006;8.372;2022-07-22T02:16:28;14.55;;;9.32;;
14994;SDS011;7593;49.006;8.372;2022-07-22T02:18:54;9.88;;;8.98;;
14994;SDS011;7593;49.006;8.372;2022-07-22T02:21:21;9.98;;;9.05;;
14994;SDS011;7593;49.006;8.372;2022-07-22T02:23:49;9.50;;;8.52;;
14994;SDS011;7593;49.006;8.372;2022-07-22T02:26:16;9.63;;;8.77;;
14994;SDS011;7593;49.006;8.372;2022-07-22T02:28:44;9.80;;;8.55;;
14994;SDS011;7593;49.006;8.372;2022-07-22T02:31:11;10.50;;;9.23;;
14994;SDS011;7593;49.006;8.372;2022-07-22T02:33:38;9.23;;;8.32;;
14994;SDS011;7593;49.006;8.372;2022-07-22T02:36:05;11.23;;;8.68;;
14994;SDS011;7593;49.006;8.372;2022-07-22T02:38:32;10.00;;;9.00;;
14994;SDS011;7593;49.006;8.372;2022-07-22T02:40:59;9.20;;;8.40;;
14994;SDS011;7593;49.006;8.372;2022-07-22T02:43:26;9.82;;;8.93;;
14994;SDS011;7593;49.006;8.372;2022-07-22T02:45:54;8.85;;;8.13;;
14994;SDS011;7593;49.006;8.372;2022-07-22T02:48:21;9.57;;;8.68;;
14994;SDS011;7593;49.006;8.372;2022-07-22T02:50:48;9.57;;;8.68;;
14994;SDS011;7593;49.006;8.372;2022-07-22T02:53:14;11.55;;;9.05;;
14994;SDS011;7593;49.006;8.372;2022-07-22T02:55:41;9.48;;;8.57;;
14994;SDS011;7593;49.006;8.372;2022-07-22T02:58:08;10.63;;;8.50;;
14994;SDS011;7593;49.006;8.372;2022-07-22T03:00:35;9.40;;;8.50;;
14994;SDS011;7593;49.006;8.372;2022-07-22T03:03:05;11.00;;;8.23;;
14994;SDS011;7593;49.006;8.372;2022-07-22T03:05:32;9.23;;;8.32;;
14994;SDS011;7593;49.006;8.372;2022-07-22T03:07:58;9.50;;;8.43;;
14994;SDS011;7593;49.006;8.372;2022-07-22T03:10:25;9.05;;;8.27;;
14994;SDS011;7593;49.006;8.372;2022-07-22T03:12:52;9.27;;;8.43;;
14994;SDS011;7593;49.006;8.372;2022-07-22T03:15:19;9.55;;;8.43;;
14994;SDS011;7593;49.006;8.372;2022-07-22T03:17:46;10.00;;;9.00;;
14994;SDS011;7593;49.006;8.372;2022-07-22T03:20:14;10.15;;;9.15;;
14994;SDS011;7593;49.006;8.372;2022-07-22T03:22:41;9.00;;;8.20;;
14994;SDS011;7593;49.006;8.372;2022-07-22T03:25:08;9.85;;;8.82;;
14994;SDS011;7593;49.006;8.372;2022-07-22T03:27:34;9.55;;;8.50;;
14994;SDS011;7593;49.006;8.372;2022-07-22T03:30:02;9.50;;;8.60;;
14994;SDS011;7593;49.006;8.372;2022-07-22T03:32:29;9.05;;;8.15;;
14994;SDS011;7593;49.006;8.372;2022-07-22T03:34:56;8.85;;;8.02;;
14994;SDS011;7593;49.006;8.372;2022-07-22T03:37:24;9.18;;;8.27;;
14994;SDS011;7593;49.006;8.372;2022-07-22T03:39:50;10.45;;;8.43;;
14994;SDS011;7593;49.006;8.372;2022-07-22T03:42:17;9.70;;;8.68;;
14994;SDS011;7593;49.006;8.372;2022-07-22T03:44:44;9.10;;;8.18;;
14994;SDS011;7593;49.006;8.372;2022-07-22T03:47:11;12.23;;;8.70;;
14994;SDS011;7593;49.006;8.372;2022-07-22T03:49:40;9.10;;;8.25;;
14994;SDS011;7593;49.006;8.372;2022-07-22T03:52:07;9.45;;;8.32;;
14994;SDS011;7593;49.006;8.372;2022-07-22T03:54:35;10.10;;;9.10;;
14994;SDS011;7593;49.006;8.372;2022-07-22T03:57:02;11.38;;;9.02;;
14994;SDS011;7593;49.006;8.372;2022-07-22T03:59:29;9.38;;;8.48;;
14994;SDS011;7593;49.006;8.372;2022-07-22T04:01:56;9.48;;;8.57;;
14994;SDS011;7593;49.006;8.372;2022-07-22T04:04:22;9.93;;;8.95;;
14994;SDS011;7593;49.006;8.372;2022-07-22T04:06:49;10.18;;;9.07;;
14994;SDS011;7593;49.006;8.372;2022-07-22T04:09:16;9.65;;;8.15;;
14994;SDS011;7593;49.006;8.372;2022-07-22T04:11:45;9.85;;;8.95;;
14994;SDS011;7593;49.006;8.372;2022-07-22T04:14:12;10.27;;;9.15;;
14994;SDS011;7593;49.006;8.372;2022-07-22T04:16:39;10.50;;;9.50;;
14994;SDS011;7593;49.006;8.372;2022-07-22T04:19:05;11.20;;;9.25;;
14994;SDS011;7593;49.006;8.372;2022-07-22T04:21:32;9.82;;;8.93;;
14994;SDS011;7593;49.006;8.372;2022-07-22T04:23:59;10.30;;;9.35;;
14994;SDS011;7593;49.006;8.372;2022-07-22T04:26:26;10.82;;;9.73;;
14994;SDS011;7593;49.006;8.372;2022-07-22T04:28:54;9.98;;;9.02;;
14994;SDS011;7593;49.006;8.372;2022-07-22T04:31:21;12.00;;;9.48;;
14994;SDS011;7593;49.006;8.372;2022-07-22T04:33:48;10.02;;;9.00;;
14994;SDS011;7593;49.006;8.372;2022-07-22T04:36:15;9.90;;;8.90;;
14994;SDS011;7593;49.006;8.372;2022-07-22T04:38:41;9.95;;;9.00;;
14994;SDS011;7593;49.006;8.372;2022-07-22T04:41:08;10.02;;;9.00;;
14994;SDS011;7593;49.006;8.372;2022-07-22T04:43:35;9.98;;;9.07;;
14994;SDS011;7593;49.006;8.372;2022-07-22T04:46:03;12.23;;;10.65;;
14994;SDS011;7593;49.006;8.372;2022-07-22T04:48:30;10.85;;;9.75;;
14994;SDS011;7593;49.006;8.372;2022-07-22T04:50:58;10.73;;;9.55;;
14994;SDS011;7593;49.006;8.372;2022-07-22T04:53:25;10.20;;;9.20;;
14994;SDS011;7593;49.006;8.372;2022-07-22T04:55:52;10.68;;;9.60;;
14994;SDS011;7593;49.006;8.372;2022-07-22T04:58:19;10.75;;;9.65;;
14994;SDS011;7593;49.006;8.372;2022-07-22T05:00:47;11.05;;;9.40;;
14994;SDS011;7593;49.006;8.372;2022-07-22T05:03:15;12.50;;;9.65;;
14994;SDS011;7593;49.006;8.372;2022-07-22T05:05:42;11.52;;;9.63;;
14994;SDS011;7593;49.006;8.372;2022-07-22T05:08:09;10.50;;;9.18;;
14994;SDS011;7593;49.006;8.372;2022-07-22T05:10:36;10.80;;;9.57;;
14994;SDS011;7593;49.006;8.372;2022-07-22T05:13:03;10.18;;;9.13;;
14994;SDS011;7593;49.006;8.372;2022-07-22T05:15:29;10.15;;;9.15;;
14994;SDS011;7593;49.006;8.372;2022-07-22T05:17:56;10.27;;;9.35;;
14994;SDS011;7593;49.006;8.372;2022-07-22T05:20:24;9.68;;;8.70;;
14994;SDS011;7593;49.006;8.372;2022-07-22T05:22:51;11.65;;;8.68;;
14994;SDS011;7593;49.006;8.372;2022-07-22T05:25:18;9.60;;;8.68;;
14994;SDS011;7593;49.006;8.372;2022-07-22T05:27:51;9.73;;;8.70;;
14994;SDS011;7593;49.006;8.372;2022-07-22T05:30:19;9.40;;;8.45;;
14994;SDS011;7593;49.006;8.372;2022-07-22T05:32:46;9.10;;;8.20;;
14994;SDS011;7593;49.006;8.372;2022-07-22T05:35:13;9.32;;;8.48;;
14994;SDS011;7593;49.006;8.372;2022-07-22T05:37:41;9.60;;;8.35;;
14994;SDS011;7593;49.006;8.372;2022-07-22T05:40:08;9.50;;;8.55;;
14994;SDS011;7593;49.006;8.372;2022-07-22T05:42:35;10.13;;;7.82;;
14994;SDS011;7593;49.006;8.372;2022-07-22T05:45:03;9.40;;;8.48;;
14994;SDS011;7593;49.006;8.372;2022-07-22T05:47:30;9.45;;;8.18;;
14994;SDS011;7593;49.006;8.372;2022-07-22T05:49:57;9.32;;;8.25;;
14994;SDS011;7593;49.006;8.372;2022-07-22T05:52:24;8.88;;;8.07;;
14994;SDS011;7593;49.006;8.372;2022-07-22T05:54:52;9.27;;;8.32;;
14994;SDS011;7593;49.006;8.372;2022-07-22T05:57:19;8.98;;;7.80;;
14994;SDS011;7593;49.006;8.372;2022-07-22T05:59:46;12.00;;;7.72;;
14994;SDS011;7593;49.006;8.372;2022-07-22T06:02:13;9.40;;;7.53;;
14994;SDS011;7593;49.006;8.372;2022-07-22T06:04:39;8.45;;;7.63;;
14994;SDS011;7593;49.006;8.372;2022-07-22T06:07:06;8.73;;;7.82;;
14994;SDS011;7593;49.006;8.372;2022-07-22T06:09:33;9.80;;;6.85;;
14994;SDS011;7593;49.006;8.372;2022-07-22T06:12:01;7.70;;;7.00;;
14994;SDS011;7593;49.006;8.372;2022-07-22T06:14:28;8.40;;;7.43;;
14994;SDS011;7593;49.006;8.372;2022-07-22T06:16:55;9.90;;;7.78;;
14994;SDS011;7593;49.006;8.372;2022-07-22T06:19:23;8.73;;;7.57;;
14994;SDS011;7593;49.006;8.372;2022-07-22T06:21:50;10.07;;;8.10;;
14994;SDS011;7593;49.006;8.372;2022-07-22T06:24:16;8.75;;;7.95;;
14994;SDS011;7593;49.006;8.372;2022-07-22T06:26:43;8.45;;;7.55;;
14994;SDS011;7593;49.006;8.372;2022-07-22T06:29:11;7.90;;;7.20;;
14994;SDS011;7593;49.006;8.372;2022-07-22T06:31:38;8.45;;;7.60;;
14994;SDS011;7593;49.006;8.372;2022-07-22T06:34:05;8.73;;;7.28;;
14994;SDS011;7593;49.006;8.372;2022-07-22T06:36:32;10.05;;;7.55;;
14994;SDS011;7593;49.006;8.372;2022-07-22T06:38:59;11.23;;;7.68;;
14994;SDS011;7593;49.006;8.372;2022-07-22T06:41:26;7.65;;;6.65;;
14994;SDS011;7593;49.006;8.372;2022-07-22T06:43:53;8.40;;;6.80;;
14994;SDS011;7593;49.006;8.372;2022-07-22T06:46:21;8.05;;;6.80;;
14994;SDS011;7593;49.006;8.372;2022-07-22T06:48:48;7.97;;;6.40;;
14994;SDS011;7593;49.006;8.372;2022-07-22T06:51:15;10.10;;;7.47;;
14994;SDS011;7593;49.006;8.372;2022-07-22T06:53:42;8.55;;;6.70;;
14994;SDS011;7593;49.006;8.372;2022-07-22T06:56:08;8.60;;;7.75;;
14994;SDS011;7593;49.006;8.372;2022-07-22T06:58:35;10.52;;;7.00;;
14994;SDS011;7593;49.006;8.372;2022-07-22T07:01:02;7.60;;;6.65;;
14994;SDS011;7593;49.006;8.372;2022-07-22T07:03:30;7.70;;;6.90;;
14994;SDS011;7593;49.006;8.372;2022-07-22T07:05:57;7.00;;;6.30;;
14994;SDS011;7593;49.006;8.372;2022-07-22T07:08:24;7.57;;;6.88;;
14994;SDS011;7593;49.006;8.372;2022-07-22T07:10:51;11.82;;;7.10;;
14994;SDS011;7593;49.006;8.372;2022-07-22T07:13:18;7.78;;;6.85;;
14994;SDS011;7593;49.006;8.372;2022-07-22T07:15:45;11.73;;;6.90;;
14994;SDS011;7593;49.006;8.372;2022-07-22T07:18:11;11.07;;;7.60;;
14994;SDS011;7593;49.006;8.372;2022-07-22T07:20:39;13.73;;;6.88;;
14994;SDS011;7593;49.006;8.372;2022-07-22T07:23:06;8.43;;;6.75;;
14994;SDS011;7593;49.006;8.372;2022-07-22T07:25:33;9.57;;;6.53;;
14994;SDS011;7593;49.006;8.372;2022-07-22T07:28:00;7.60;;;6.18;;
14994;SDS011;7593;49.006;8.372;2022-07-22T07:30:27;7.22;;;6.35;;
14994;SDS011;7593;49.006;8.372;2022-07-22T07:32:55;8.35;;;6.65;;
14994;SDS011;7593;49.006;8.372;2022-07-22T07:35:22;9.60;;;6.68;;
14994;SDS011;7593;49.006;8.372;2022-07-22T07:37:50;7.20;;;6.57;;
14994;SDS011;7593;49.006;8.372;2022-07-22T07:40:17;7.72;;;6.50;;
14994;SDS011;7593;49.006;8.372;2022-07-22T07:42:44;7.88;;;7.07;;
14994;SDS011;7593;49.006;8.372;2022-07-22T07:45:11;11.15;;;6.75;;
14994;SDS011;7593;49.006;8.372;2022-07-22T07:47:38;12.25;;;7.43;;
14994;SDS011;7593;49.006;8.372;2022-07-22T07:50:06;8.90;;;6.20;;
14994;SDS011;7593;49.006;8.372;2022-07-22T07:52:36;7.47;;;6.78;;
14994;SDS011;7593;49.006;8.372;2022-07-22T07:55:06;7.40;;;6.00;;
14994;SDS011;7593;49.006;8.372;2022-07-22T07:57:34;7.20;;;6.35;;
14994;SDS011;7593;49.006;8.372;2022-07-22T08:00:04;7.55;;;6.65;;
14994;SDS011;7593;49.006;8.372;2022-07-22T08:02:33;8.07;;;6.68;;
14994;SDS011;7593;49.006;8.372;2022-07-22T08:04:59;8.85;;;6.38;;
14994;SDS011;7593;49.006;8.372;2022-07-22T08:07:26;8.00;;;6.78;;
14994;SDS011;7593;49.006;8.372;2022-07-22T08:09:54;7.47;;;6.72;;
14994;SDS011;7593;49.006;8.372;2022-07-22T08:12:22;7.47;;;6.78;;
14994;SDS011;7593;49.006;8.372;2022-07-22T08:14:49;7.30;;;6.70;;
14994;SDS011;7593;49.006;8.372;2022-07-22T08:17:16;9.38;;;7.18;;
14994;SDS011;7593;49.006;8.372;2022-07-22T08:19:43;7.70;;;6.82;;
14994;SDS011;7593;49.006;8.372;2022-07-22T08:22:10;7.40;;;6.43;;
14994;SDS011;7593;49.006;8.372;2022-07-22T08:24:37;8.88;;;6.38;;
14994;SDS011;7593;49.006;8.372;2022-07-22T08:27:03;6.50;;;5.95;;
14994;SDS011;7593;49.006;8.372;2022-07-22T08:29:31;7.63;;;6.80;;
14994;SDS011;7593;49.006;8.372;2022-07-22T08:31:58;7.75;;;6.95;;
14994;SDS011;7593;49.006;8.372;2022-07-22T08:34:25;8.45;;;5.97;;
14994;SDS011;7593;49.006;8.372;2022-07-22T08:36:52;6.70;;;5.97;;
14994;SDS011;7593;49.006;8.372;2022-07-22T08:39:19;7.32;;;6.40;;
14994;SDS011;7593;49.006;8.372;2022-07-22T08:41:45;7.95;;;6.30;;
14994;SDS011;7593;49.006;8.372;2022-07-22T08:44:12;6.97;;;5.90;;
14994;SDS011;7593;49.006;8.372;2022-07-22T08:46:40;7.22;;;6.53;;
14994;SDS011;7593;49.006;8.372;2022-07-22T08:49:09;7.25;;;6.38;;
14994;SDS011;7593;49.006;8.372;2022-07-22T08:51:39;6.82;;;6.22;;
14994;SDS011;7593;49.006;8.372;2022-07-22T08:54:06;7.72;;;6.50;;
14994;SDS011;7593;49.006;8.372;2022-07-22T08:56:33;6.80;;;5.80;;
14994;SDS011;7593;49.006;8.372;2022-07-22T08:59:00;8.38;;;5.93;;
14994;SDS011;7593;49.006;8.372;2022-07-22T09:01:26;6.65;;;5.07;;
14994;SDS011;7593;49.006;8.372;2022-07-22T09:03:55;5.88;;;5.30;;
14994;SDS011;7593;49.006;8.372;2022-07-22T09:06:24;6.85;;;5.50;;
14994;SDS011;7593;49.006;8.372;2022-07-22T09:08:52;8.48;;;5.30;;
14994;SDS011;7593;49.006;8.372;2022-07-22T09:11:21;6.57;;;5.80;;
14994;SDS011;7593;49.006;8.372;2022-07-22T09:13:49;6.88;;;5.72;;
14994;SDS011;7593;49.006;8.372;2022-07-22T09:16:17;9.90;;;5.38;;
14994;SDS011;7593;49.006;8.372;2022-07-22T09:19:05;8.82;;;4.97;;
14994;SDS011;7593;49.006;8.372;2022-07-22T09:21:34;10.25;;;5.18;;
14994;SDS011;7593;49.006;8.372;2022-07-22T09:24:01;6.05;;;4.88;;
14994;SDS011;7593;49.006;8.372;2022-07-22T09:26:29;7.85;;;5.57;;
14994;SDS011;7593;49.006;8.372;2022-07-22T09:28:57;7.28;;;5.30;;
14994;SDS011;7593;49.006;8.372;2022-07-22T09:31:25;7.55;;;5.40;;
14994;SDS011;7593;49.006;8.372;2022-07-22T09:33:52;5.88;;;4.80;;
14994;SDS011;7593;49.006;8.372;2022-07-22T09:36:21;9.15;;;5.03;;
14994;SDS011;7593;49.006;8.372;2022-07-22T09:38:48;6.70;;;4.97;;
14994;SDS011;7593;49.006;8.372;2022-07-22T09:41:16;7.28;;;5.03;;
14994;SDS011;7593;49.006;8.372;2022-07-22T09:43:43;10.68;;;4.90;;
14994;SDS011;7593;49.006;8.372;2022-07-22T09:46:10;7.90;;;4.90;;
14994;SDS011;7593;49.006;8.372;2022-07-22T09:48:37;9.07;;;5.30;;
14994;SDS011;7593;49.006;8.372;2022-07-22T09:51:05;5.43;;;4.65;;
14994;SDS011;7593;49.006;8.372;2022-07-22T09:53:33;7.60;;;4.88;;
14994;SDS011;7593;49.006;8.372;2022-07-22T09:56:02;6.32;;;4.68;;
14994;SDS011;7593;49.006;8.372;2022-07-22T09:58:31;5.00;;;4.45;;
14994;SDS011;7593;49.006;8.372;2022-07-22T10:00:58;6.75;;;4.43;;
14994;SDS011;7593;49.006;8.372;2022-07-22T10:03:28;6.05;;;4.63;;
14994;SDS011;7593;49.006;8.372;2022-07-22T10:05:57;7.82;;;4.55;;
14994;SDS011;7593;49.006;8.372;2022-07-22T10:08:25;6.53;;;4.20;;
14994;SDS011;7593;49.006;8.372;2022-07-22T10:10:54;5.03;;;4.00;;
14994;SDS011;7593;49.006;8.372;2022-07-22T10:13:26;5.25;;;3.95;;
14994;SDS011;7593;49.006;8.372;2022-07-22T10:15:53;8.68;;;4.32;;
14994;SDS011;7593;49.006;8.372;2022-07-22T10:18:21;6.97;;;4.28;;
14994;SDS011;7593;49.006;8.372;2022-07-22T10:20:56;8.98;;;4.50;;
14994;SDS011;7593;49.006;8.372;2022-07-22T10:23:27;5.95;;;4.30;;
14994;SDS011;7593;49.006;8.372;2022-07-22T10:25:56;8.18;;;4.90;;
14994;SDS011;7593;49.006;8.372;2022-07-22T10:28:25;5.07;;;4.57;;
14994;SDS011;7593;49.006;8.372;2022-07-22T10:30:53;9.90;;;4.28;;
14994;SDS011;7593;49.006;8.372;2022-07-22T10:33:43;6.22;;;4.60;;
14994;SDS011;7593;49.006;8.372;2022-07-22T10:36:10;4.57;;;4.15;;
14994;SDS011;7593;49.006;8.372;2022-07-22T10:38:38;4.47;;;4.05;;
14994;SDS011;7593;49.006;8.372;2022-07-22T10:41:32;4.80;;;4.05;;
14994;SDS011;7593;49.006;8.372;2022-07-22T10:44:00;8.50;;;4.45;;
14994;SDS011;7593;49.006;8.372;2022-07-22T10:49:16;4.68;;;4.00;;
14994;SDS011;7593;49.006;8.372;2022-07-22T10:57:38;5.82;;;3.83;;
14994;SDS011;7593;49.006;8.372;2022-07-22T11:00:05;7.55;;;4.03;;
14994;SDS011;7593;49.006;8.372;2022-07-22T11:02:33;5.70;;;3.60;;
14994;SDS011;7593;49.006;8.372;2022-07-22T11:05:03;7.85;;;4.03;;
14994;SDS011;7593;49.006;8.372;2022-07-22T11:07:30;6.32;;;4.47;;
14994;SDS011;7593;49.006;8.372;2022-07-22T11:10:07;4.40;;;4.00;;
14994;SDS011;7593;49.006;8.372;2022-07-22T11:12:35;6.07;;;4.35;;
14994;SDS011;7593;49.006;8.372;2022-07-22T11:15:03;6.60;;;4.20;;
14994;SDS011;7593;49.006;8.372;2022-07-22T11:17:32;6.15;;;4.55;;
14994;SDS011;7593;49.006;8.372;2022-07-22T11:19:59;6.75;;;4.68;;
14994;SDS011;7593;49.006;8.372;2022-07-22T11:22:27;5.78;;;4.07;;
14994;SDS011;7593;49.006;8.372;2022-07-22T11:24:54;6.30;;;4.10;;
14994;SDS011;7593;49.006;8.372;2022-07-22T11:27:20;4.65;;;3.72;;
14994;SDS011;7593;49.006;8.372;2022-07-22T11:29:48;4.75;;;4.22;;
14994;SDS011;7593;49.006;8.372;2022-07-22T11:32:18;4.95;;;4.15;;
14994;SDS011;7593;49.006;8.372;2022-07-22T11:34:46;5.85;;;4.28;;
14994;SDS011;7593;49.006;8.372;2022-07-22T11:37:13;4.57;;;4.07;;
14994;SDS011;7593;49.006;8.372;2022-07-22T11:39:41;5.60;;;4.20;;
14994;SDS011;7593;49.006;8.372;2022-07-22T11:42:08;6.72;;;4.13;;
14994;SDS011;7593;49.006;8.372;2022-07-22T11:44:35;4.93;;;4.15;;
14994;SDS011;7593;49.006;8.372;2022-07-22T11:47:03;5.00;;;3.80;;
14994;SDS011;7593;49.006;8.372;2022-07-22T11:49:33;4.28;;;3.80;;
14994;SDS011;7593;49.006;8.372;2022-07-22T11:52:01;5.82;;;3.95;;
14994;SDS011;7593;49.006;8.372;2022-07-22T11:54:29;4.05;;;3.70;;
14994;SDS011;7593;49.006;8.372;2022-07-22T11:56:56;4.82;;;3.75;;
14994;SDS011;7593;49.006;8.372;2022-07-22T11:59:22;5.95;;;3.97;;
14994;SDS011;7593;49.006;8.372;2022-07-22T12:01:50;4.05;;;3.65;;
14994;SDS011;7593;49.006;8.372;2022-07-22T12:04:18;5.13;;;4.00;;
14994;SDS011;7593;49.006;8.372;2022-07-22T12:06:47;6.13;;;3.85;;
14994;SDS011;7593;49.006;8.372;2022-07-22T12:09:15;4.22;;;3.83;;
14994;SDS011;7593;49.006;8.372;2022-07-22T12:11:47;5.47;;;4.20;;
14994;SDS011;7593;49.006;8.372;2022-07-22T12:14:17;5.75;;;3.75;;
14994;SDS011;7593;49.006;8.372;2022-07-22T12:16:52;4.15;;;3.70;;
14994;SDS011;7593;49.006;8.372;2022-07-22T12:19:21;7.30;;;3.58;;
14994;SDS011;7593;49.006;8.372;2022-07-22T12:21:53;6.05;;;3.92;;
14994;SDS011;7593;49.006;8.372;2022-07-22T12:24:25;7.32;;;3.70;;
14994;SDS011;7593;49.006;8.372;2022-07-22T12:26:53;4.10;;;3.70;;
14994;SDS011;7593;49.006;8.372;2022-07-22T12:29:22;4.57;;;3.55;;
14994;SDS011;7593;49.006;8.372;2022-07-22T12:31:51;3.50;;;3.20;;
14994;SDS011;7593;49.006;8.372;2022-07-22T12:34:29;4.00;;;3.60;;
14994;SDS011;7593;49.006;8.372;2022-07-22T12:37:07;4.90;;;3.90;;
14994;SDS011;7593;49.006;8.372;2022-07-22T12:39:38;4.93;;;3.70;;
14994;SDS011;7593;49.006;8.372;2022-07-22T12:42:15;5.63;;;3.80;;
14994;SDS011;7593;49.006;8.372;2022-07-22T12:44:49;3.90;;;3.58;;
14994;SDS011;7593;49.006;8.372;2022-07-22T12:47:17;4.13;;;3.72;;
14994;SDS011;7593;49.006;8.372;2022-07-22T12:50:14;3.90;;;3.60;;
14994;SDS011;7593;49.006;8.372;2022-07-22T12:52:46;4.68;;;3.80;;
14994;SDS011;7593;49.006;8.372;2022-07-22T12:55:13;5.47;;;3.63;;
14994;SDS011;7593;49.006;8.372;2022-07-22T12:57:40;4.72;;;3.97;;
14994;SDS011;7593;49.006;8.372;2022-07-22T13:00:07;4.28;;;3.85;;
14994;SDS011;7593;49.006;8.372;2022-07-22T13:02:35;4.63;;;3.85;;
14994;SDS011;7593;49.006;8.372;2022-07-22T13:05:02;4.07;;;3.67;;
14994;SDS011;7593;49.006;8.372;2022-07-22T13:07:29;3.90;;;3.60;;
14994;SDS011;7593;49.006;8.372;2022-07-22T13:09:57;6.85;;;3.72;;
14994;SDS011;7593;49.006;8.372;2022-07-22T13:12:23;5.25;;;4.00;;
14994;SDS011;7593;49.006;8.372;2022-07-22T13:14:50;3.75;;;3.45;;
14994;SDS011;7593;49.006;8.372;2022-07-22T13:17:17;4.53;;;3.85;;
14994;SDS011;7593;49.006;8.372;2022-07-22T13:19:44;4.03;;;3.63;;
14994;SDS011;7593;49.006;8.372;2022-07-22T13:22:11;3.85;;;3.53;;
14994;SDS011;7593;49.006;8.372;2022-07-22T13:24:38;4.38;;;3.97;;
14994;SDS011;7593;49.006;8.372;2022-07-22T13:27:06;4.85;;;3.58;;
14994;SDS011;7593;49.006;8.372;2022-07-22T13:29:33;4.45;;;3.90;;
14994;SDS011;7593;49.006;8.372;2022-07-22T13:31:59;3.95;;;3.55;;
14994;SDS011;7593;49.006;8.372;2022-07-22T13:34:26;6.60;;;4.10;;
14994;SDS011;7593;49.006;8.372;2022-07-22T13:36:53;5.18;;;3.67;;
14994;SDS011;7593;49.006;8.372;2022-07-22T13:39:20;5.28;;;4.03;;
14994;SDS011;7593;49.006;8.372;2022-07-22T13:41:48;5.10;;;4.22;;
14994;SDS011;7593;49.006;8.372;2022-07-22T13:44:16;4.47;;;3.95;;
14994;SDS011;7593;49.006;8.372;2022-07-22T13:46:43;4.40;;;3.70;;
14994;SDS011;7593;49.006;8.372;2022-07-22T13:49:10;4.22;;;3.80;;
14994;SDS011;7593;49.006;8.372;2022-07-22T13:51:37;4.50;;;3.60;;
14994;SDS011;7593;49.006;8.372;2022-07-22T13:54:04;4.03;;;3.67;;
14994;SDS011;7593;49.006;8.372;2022-07-22T13:56:31;3.95;;;3.63;;
14994;SDS011;7593;49.006;8.372;2022-07-22T13:58:58;6.65;;;4.13;;
14994;SDS011;7593;49.006;8.372;2022-07-22T14:01:28;4.28;;;3.50;;
14994;SDS011;7593;49.006;8.372;2022-07-22T14:03:56;5.78;;;3.90;;
14994;SDS011;7593;49.006;8.372;2022-07-22T14:06:25;4.55;;;3.80;;
14994;SDS011;7593;49.006;8.372;2022-07-22T14:08:52;4.57;;;3.85;;
14994;SDS011;7593;49.006;8.372;2022-07-22T14:11:19;6.60;;;4.20;;
14994;SDS011;7593;49.006;8.372;2022-07-22T14:13:45;5.20;;;3.38;;
14994;SDS011;7593;49.006;8.372;2022-07-22T14:16:12;6.75;;;3.70;;
14994;SDS011;7593;49.006;8.372;2022-07-22T14:18:58;9.80;;;4.20;;
14994;SDS011;7593;49.006;8.372;2022-07-22T14:21:24;9.98;;;4.10;;
14994;SDS011;7593;49.006;8.372;2022-07-22T14:23:51;4.75;;;3.92;;
14994;SDS011;7593;49.006;8.372;2022-07-22T14:26:19;7.45;;;4.68;;
14994;SDS011;7593;49.006;8.372;2022-07-22T14:28:47;6.18;;;4.25;;
14994;SDS011;7593;49.006;8.372;2022-07-22T14:31:14;6.18;;;4.43;;
14994;SDS011;7593;49.006;8.372;2022-07-22T14:33:41;5.95;;;3.75;;
14994;SDS011;7593;49.006;8.372;2022-07-22T14:36:09;4.20;;;3.80;;
14994;SDS011;7593;49.006;8.372;2022-07-22T14:38:36;5.05;;;3.88;;
14994;SDS011;7593;49.006;8.372;2022-07-22T14:41:03;4.97;;;4.10;;
14994;SDS011;7593;49.006;8.372;2022-07-22T14:43:29;4.63;;;3.90;;
14994;SDS011;7593;49.006;8.372;2022-07-22T14:45:56;6.25;;;4.43;;
14994;SDS011;7593;49.006;8.372;2022-07-22T14:48:23;5.38;;;4.13;;
14994;SDS011;7593;49.006;8.372;2022-07-22T14:50:50;6.28;;;4.03;;
14994;SDS011;7593;49.006;8.372;2022-07-22T14:53:18;4.85;;;3.85;;
14994;SDS011;7593;49.006;8.372;2022-07-22T14:55:45;4.40;;;4.00;;
14994;SDS011;7593;49.006;8.372;2022-07-22T14:58:12;5.15;;;4.25;;
14994;SDS011;7593;49.006;8.372;2022-07-22T15:00:39;4.45;;;4.05;;
14994;SDS011;7593;49.006;8.372;2022-07-22T15:03:06;4.93;;;4.22;;
14994;SDS011;7593;49.006;8.372;2022-07-22T15:05:33;8.00;;;4.78;;
14994;SDS011;7593;49.006;8.372;2022-07-22T15:08:00;4.88;;;4.10;;
14994;SDS011;7593;49.006;8.372;2022-07-22T15:10:28;5.68;;;4.15;;